Oostwold Airport

EHOW · Groningen, The Netherlands

METAR history EHOW · Oostwold Airport

Below you see METARs of the last few days. Select a year to browse through older METARs, from the year 2007 onwards.

March 30, 2023

Time Code Weather Temp. Visibility Ceiling Wind METAR/SPECI
03:50
V
11 °C 10 km+ 6,900 ft 170° 170° 7 kt METAR EDWE 300150Z AUTO 17007KT 9999 // BKN069/// OVC100/// 11/09 Q1003
03:20
V
11 °C 10 km+ 6,600 ft 160° 160° 8 kt METAR EDWE 300120Z AUTO 16008KT 9999 // OVC066/// 11/09 Q1003
02:50
V
11 °C 9 km 6,300 ft 150° 150° 6 kt METAR EDWE 300050Z AUTO 15006KT 110V180 9000 // OVC063/// 11/09 Q1004
02:20
V
10 °C 8 km 5,900 ft 160° 160° 6 kt METAR EDWE 300020Z AUTO 16006KT 8000 // OVC059/// 10/09 Q1004
01:50
M
10 °C 7 km 6,900 ft 160° 160° 6 kt METAR EDWE 292350Z AUTO 16006KT 130V190 7000 // FEW057/// OVC069/// 10/09 Q1005
01:20
V
10 °C 8 km 5,700 ft 160° 160° 8 kt METAR EDWE 292320Z AUTO 16008KT 120V190 8000 // OVC057/// 10/09 Q1005
00:50
M
10 °C 7 km 5,000 ft 140° 140° 8 kt METAR EDWE 292250Z AUTO 14008KT 7000 // BKN050/// OVC070/// 10/09 Q1005
00:20
M
10 °C 7 km 7,700 ft 140° 140° 9 kt METAR EDWE 292220Z AUTO 14009KT 7000 // FEW025/// BKN077/// BKN220/// 10/09 Q1006

March 29, 2023

Time Code Weather Temp. Visibility Ceiling Wind METAR/SPECI
23:50
V
10 °C 10 km+ 8,800 ft 140° 140° 8 kt METAR EDWE 292150Z AUTO 14008KT 9999 // SCT029/// BKN088/// BKN210/// 10/09 Q1007
23:20
M
10 °C 10 km+ 2,600 ft 150° 150° 7 kt METAR EDWE 292120Z AUTO 15007KT 120V180 9999 // BKN026/// BKN045/// BKN100/// 10/09 Q1007
22:50
M
10 °C 10 km+ 2,700 ft 150° 150° 7 kt METAR EDWE 292050Z AUTO 15007KT 130V190 9999 // BKN027/// OVC037/// 10/09 Q1008
22:20
V
10 °C 10 km+ 3,600 ft 160° 160° 6 kt METAR EDWE 292020Z AUTO 16006KT 120V190 9999 // FEW016/// BKN036/// OVC041/// 10/09 Q1008
21:50
M
10 °C 6 km 3,600 ft 180° 180° 6 kt METAR EDWE 291950Z AUTO 18006KT 6000 // BKN036/// OVC049/// 10/09 Q1009
21:20
V
10 °C 10 km+ 6,900 ft 170° 170° 7 kt METAR EDWE 291920Z AUTO 17007KT 140V200 9999 // OVC069/// 10/09 Q1009
20:50
V
11 °C 10 km+ 7,500 ft 180° 180° 7 kt METAR EDWE 291850Z AUTO 18007KT 9999 // OVC075/// 11/09 Q1009
20:20
V
11 °C 10 km+ 6,900 ft 180° 180° 8 kt METAR EDWE 291820Z AUTO 18008KT 160V220 9999 // OVC069/// 11/09 Q1009
19:50
V
11 °C 10 km+ - 190° 190° 9 kt METAR EDWE 291750Z 19009KT 9999 -RA NSC 11/09 Q1009
19:20
V
12 °C 10 km+ 3,900 ft 190° 190° 7 kt METAR EDWE 291720Z 19007KT 9999 BKN039 OVC042 12/08 Q1010
18:50
V
12 °C 10 km+ 4,200 ft 190° 190° 8 kt METAR EDWE 291650Z 19008KT 9999 OVC042 12/08 Q1010
18:20
V
12 °C 10 km+ - 190° 190° 7 kt METAR EDWE 291620Z 19007KT CAVOK 12/08 Q1010
17:50
V
13 °C 10 km+ 4,900 ft 210° 210° 7 kt METAR EDWE 291550Z 21007KT 9999 OVC049 13/07 Q1011
16:50
V
13 °C 10 km+ - 210° 210° 7 kt METAR EDWE 291450Z 21007KT 180V250 CAVOK 13/07 Q1011
16:20
V
13 °C 10 km+ - 210° 210° 7 kt METAR EDWE 291420Z 21007KT 170V240 9999 FEW023 13/07 Q1011
15:50
M
12 °C 10 km+ 2,200 ft 200° 200° 6 kt METAR EDWE 291350Z 20006KT 9999 BKN022 12/08 Q1012
15:20
V
11 °C 10 km+ - 200° 200° 8 kt METAR EDWE 291320Z 20008KT 160V230 9999 FEW043 11/07 Q1012
12:50
M
9 °C 10 km+ 1,300 ft 220° 220° 10 kt METAR EDWE 291050Z 22010KT 9999 BKN013 OVC014 09/06 Q1012
12:20
M
9 °C 10 km+ 1,200 ft 210° 210° 9 kt METAR EDWE 291020Z 21009KT 9999 BKN012 BKN014 09/06 Q1012
05:50
M
5 °C 10 km+ 2,300 ft 180° 180° 8 kt METAR EDWE 290350Z AUTO 18008KT 9999 // BKN023/// BKN030/// OVC036/// 05/03 Q1014
05:20
V
5 °C 10 km+ 3,300 ft 180° 180° 9 kt METAR EDWE 290320Z AUTO 18009KT 9999 // BKN033/// OVC038/// 05/02 Q1014
04:50
V
5 °C 10 km+ 3,300 ft 190° 190° 9 kt METAR EDWE 290250Z AUTO 19009KT 9999 // FEW027/// OVC033/// 05/02 Q1014
04:20
V
5 °C 10 km+ 5,000 ft 190° 190° 10 kt METAR EDWE 290220Z AUTO 19010KT 9999 // BKN050/// OVC060/// 05/02 Q1015
03:50
V
5 °C 10 km+ 6,400 ft 190° 190° 10 kt METAR EDWE 290150Z AUTO 19010KT 160V220 9999 // FEW039/// OVC064/// 05/02 Q1015
03:20
V
5 °C 10 km+ 3,900 ft 190° 190° 10 kt METAR EDWE 290120Z AUTO 19010KT 9999 // BKN039/// OVC089/// 05/02 Q1015
02:50
V
5 °C 10 km+ 4,700 ft 180° 180° 8 kt METAR EDWE 290050Z AUTO 18008KT 150V210 9999 // BKN047/// BKN095/// OVC170/// 05/02 Q1016
02:20
V
5 °C 10 km+ 7,200 ft 180° 180° 7 kt METAR EDWE 290020Z AUTO 18007KT 150V220 9999 // FEW047/// OVC072/// 05/02 Q1016
01:50
V
5 °C 10 km+ 6,300 ft 170° 170° 6 kt METAR EDWE 282350Z AUTO 17006KT 9999 // OVC063/// 05/02 Q1017
01:20
V
5 °C 10 km+ 5,500 ft 170° 170° 6 kt METAR EDWE 282320Z AUTO 17006KT 9999 // OVC055/// 05/02 Q1017
00:50
V
4 °C 10 km+ 5,600 ft 160° 160° 6 kt METAR EDWE 282250Z AUTO 16006KT 130V190 9999 // OVC056/// 04/02 Q1017
00:20
V
5 °C 10 km+ 6,600 ft 180° 180° 8 kt METAR EDWE 282220Z AUTO 18008KT 150V210 9999 // FEW052/// BKN066/// OVC075/// 05/02 Q1018

March 28, 2023

Time Code Weather Temp. Visibility Ceiling Wind METAR/SPECI
23:50
V
4 °C 10 km+ 4,800 ft 180° 180° 7 kt METAR EDWE 282150Z AUTO 18007KT 9999 // BKN048/// BKN056/// OVC067/// 04/02 Q1018
23:20
V
4 °C 10 km+ 4,900 ft 180° 180° 8 kt METAR EDWE 282120Z AUTO 18008KT 9999 // FEW030/// OVC049/// 04/02 Q1018
22:50
V
5 °C 10 km+ 4,000 ft 190° 190° 10 kt METAR EDWE 282050Z AUTO 19010KT 140V220 9999 // FEW019/// OVC040/// 05/02 Q1019
22:20
V
5 °C 10 km+ 3,800 ft 200° 200° 9 kt METAR EDWE 282020Z AUTO 20009KT 9999 // FEW020/// OVC038/// 05/01 Q1019
21:50
V
5 °C 10 km+ 3,500 ft 210° 210° 9 kt METAR EDWE 281950Z AUTO 21009KT 170V240 9999 // SCT028/// BKN035/// OVC043/// 05/01 Q1019
21:20
V
5 °C 10 km+ 4,600 ft 190° 190° 8 kt METAR EDWE 281920Z AUTO 19008KT 9999 // FEW033/// OVC046/// 05/01 Q1019
20:50
M
6 °C 10 km+ 3,000 ft 200° 200° 7 kt METAR EDWE 281850Z AUTO 20007KT 170V230 9999 // BKN030/// OVC038/// 06/00 Q1019
20:20
V
6 °C 10 km+ 3,800 ft 190° 190° 5 kt METAR EDWE 281820Z 19005KT 150V240 9999 SCT033 OVC038 06/M00 Q1020
19:50
V
6 °C 10 km+ 3,700 ft 200° 200° 11 kt METAR EDWE 281750Z 20011KT 170V230 9999 -DZ BKN037 BKN039 06/M01 Q1020
19:20
V
7 °C 10 km+ - 190° 190° 8 kt METAR EDWE 281720Z 19008KT 150V210 9999 SCT045 07/M01 Q1020
18:50
V
7 °C 10 km+ - 200° 200° 10 kt METAR EDWE 281650Z 20010KT 160V230 9999 FEW048 07/M02 Q1020
18:20
V
8 °C 10 km+ - 200° 200° 10 kt METAR EDWE 281620Z 20010KT 170V230 9999 FEW043 08/M02 Q1020
17:50
V
8 °C 10 km+ - 200° 200° 10 kt METAR EDWE 281550Z 20010KT 160V230 9999 FEW044 08/M02 Q1021
17:20
V
7 °C 10 km+ - 200° 200° 11 kt METAR EDWE 281520Z 20011KT 180V250 CAVOK 07/M02 Q1021
16:50
V
8 °C 10 km+ - 210° 210° 11 kt METAR EDWE 281450Z 21011KT 180V250 9999 FEW047 08/M02 Q1021
16:20
V
8 °C 10 km+ - 210° 210° 9 kt METAR EDWE 281420Z 21009KT 150V230 9999 FEW044 08/M03 Q1022
15:50
V
7 °C 10 km+ - 200° 200° 10 kt METAR EDWE 281350Z 20010KT 160V230 CAVOK 07/M03 Q1022
15:20
V
8 °C 10 km+ - 210° 210° 10 kt METAR EDWE 281320Z 21010KT 9999 FEW042 08/M03 Q1023
14:50
V
8 °C 10 km+ - 200° 200° 9 kt METAR EDWE 281250Z 20009KT 170V240 9999 FEW045 08/M02 Q1023
14:20
V
7 °C 10 km+ - 200° 200° 9 kt METAR EDWE 281220Z 20009KT 160V220 9999 SCT043 07/M02 Q1023
13:50
V
7 °C 10 km+ 4,400 ft 220° 220° 8 kt METAR EDWE 281150Z 22008KT 160V250 9999 BKN044 07/M02 Q1024
13:20
V
7 °C 10 km+ 4,500 ft 230° 230° 10 kt METAR EDWE 281120Z 23010KT 9999 BKN045 07/M03 Q1024
12:50
V
6 °C 10 km+ 3,800 ft 250° 250° 10 kt METAR EDWE 281050Z 25010KT 9999 BKN038 06/M02 Q1024
12:20
V
7 °C 10 km+ 4,400 ft 240° 240° 10 kt METAR EDWE 281020Z 24010KT 210V270 9999 BKN044 07/M02 Q1025
11:50
V
6 °C 10 km+ 3,500 ft 240° 240° 10 kt METAR EDWE 280950Z 24010KT 9999 BKN035 BKN040 06/M02 Q1025
05:50
V
2 °C 10 km+ - 280° 280° 6 kt METAR EDWE 280350Z AUTO 28006KT 9999 // FEW038/// 02/M01 Q1023
05:20
M
2 °C 10 km+ 3,000 ft 280° 280° 5 kt METAR EDWE 280320Z AUTO 28005KT 9999 // BKN030/// 02/M00 Q1023
04:50
V
2 °C 10 km+ 3,100 ft 340° 340° 3 kt METAR EDWE 280250Z AUTO 34003KT 300V010 9999 // BKN031/// 02/M00 Q1023
04:20
V
2 °C 10 km+ - 270° 270° 3 kt METAR EDWE 280220Z AUTO 27003KT 9999 // NCD 02/M00 Q1023
03:50
V
2 °C 10 km+ - 330° 330° 7 kt METAR EDWE 280150Z AUTO 33007KT 9999 // SCT067/// 02/M01 Q1023
03:20
M
4 °C 10 km+ 2,900 ft 300° 300° 8 - 18 kt METAR EDWE 280120Z AUTO 30008G18KT 270V340 9999 // SCT020/// BKN029/// BKN034/// 04/01 Q1023
02:50
V
4 °C 10 km+ 5,500 ft 300° 300° 8 kt METAR EDWE 280050Z AUTO 30008KT 9999 // SCT026/// BKN055/// BKN069/// 04/00 Q1023
02:20
V
4 °C 10 km+ - 290° 290° 14 kt METAR EDWE 280020Z AUTO 29014KT 9999 // SCT033/// 04/M00 Q1023
01:50
V
3 °C 10 km+ 6,400 ft 290° 290° 11 kt METAR EDWE 272350Z AUTO 29011KT 9999 // FEW054/// BKN064/// BKN074/// 03/00 Q1023
01:20
V
3 °C 10 km+ - 290° 290° 10 kt METAR EDWE 272320Z AUTO 29010KT 9999 // FEW014/// 03/00 Q1022
00:50
V
4 °C 10 km+ - 300° 300° 12 kt METAR EDWE 272250Z AUTO 30012KT 9999 // FEW078/// 04/M01 Q1022
00:20
V
4 °C 10 km+ 7,600 ft 300° 300° 13 kt METAR EDWE 272220Z AUTO 30013KT 9999 // FEW054/// BKN076/// 04/M01 Q1022

March 27, 2023

Time Code Weather Temp. Visibility Ceiling Wind METAR/SPECI
23:50
V
4 °C 10 km+ 6,500 ft 310° 310° 13 kt METAR EDWE 272150Z AUTO 31013KT 9999 // SCT029/// BKN065/// BKN087/// 04/M02 Q1022
23:20
V
4 °C 10 km+ 4,000 ft 320° 320° 13 kt METAR EDWE 272120Z AUTO 32013KT 9999 // BKN040/// BKN084/// 04/M01 Q1022
22:50
V
4 °C 10 km+ - 310° 310° 11 kt METAR EDWE 272050Z AUTO 31011KT 9999 // FEW028/// 04/M01 Q1022
22:20
V
4 °C 10 km+ - 290° 290° 14 kt SPECI EDWE 272020Z AUTO 29014KT 9999 // NCD 04/M00 Q1021
21:50
V
4 °C 10 km+ - 300° 300° 15 kt METAR EDWE 271950Z AUTO 30015KT 270V330 9999 // SCT033/// 04/M01 Q1021
21:20
V
5 °C 10 km+ - 300° 300° 14 kt METAR EDWE 271920Z AUTO 30014KT 9999 // SCT034/// SCT050/// 05/M01 Q1021
20:50
V
5 °C 10 km+ - 300° 300° 11 kt METAR EDWE 271850Z AUTO 30011KT 9999 // SCT034/// 05/M01 Q1021
20:20
V
4 °C 10 km+ 3,400 ft 300° 300° 14 kt METAR EDWE 271820Z 30014KT 9999 -SHRA BKN034 04/M01 Q1021
19:50
V
5 °C 10 km+ - 310° 310° 16 - 27 kt METAR EDWE 271750Z 31016G27KT 9999 SCT037 05/M02 Q1021
19:20
V
5 °C 10 km+ - 290° 290° 15 kt METAR EDWE 271720Z 29015KT 9999 SCT033 05/M00 Q1020
18:50
V
5 °C 10 km+ - 300° 300° 15 kt METAR EDWE 271650Z 30015KT 270V330 9999 SCT038 05/M02 Q1020
18:20
V
6 °C 10 km+ - 310° 310° 15 kt METAR EDWE 271620Z 31015KT 9999 FEW038 06/M02 Q1020
17:50
V
5 °C 10 km+ - 300° 300° 12 kt METAR EDWE 271550Z 30012KT 9999 FEW031 SCT035 05/00 Q1020
17:20
V
6 °C 10 km+ - 300° 300° 17 kt METAR EDWE 271520Z 30017KT 270V330 9999 VCSH FEW033 SCT042 06/M01 Q1020
16:50
V
6 °C 10 km+ - 310° 310° 15 - 26 kt METAR EDWE 271450Z 31015G26KT 280V340 9999 SCT017 06/M01 Q1019
16:20
V
5 °C 10 km+ 3,200 ft 320° 320° 19 - 30 kt METAR EDWE 271420Z 32019G30KT 280V350 9999 BKN032 05/M02 Q1019
15:50
V
6 °C 10 km+ 3,100 ft 310° 310° 17 kt METAR EDWE 271350Z 31017KT 270V340 9999 BKN031 06/M00 Q1019
15:20
V
6 °C 10 km+ 3,800 ft 310° 310° 17 - 27 kt METAR EDWE 271320Z 31017G27KT 9999 FEW030 BKN038 06/M01 Q1019
14:50
M
7 °C 10 km+ 3,000 ft 310° 310° 16 kt METAR EDWE 271250Z 31016KT 280V340 9999 BKN030 07/M00 Q1019
13:20
V
7 °C 10 km+ - 300° 300° 15 kt METAR EDWE 271120Z 30015KT 270V330 9999 VCSH SCT034 07/01 Q1018
12:50
V
6 °C 10 km+ - 310° 310° 16 - 26 kt METAR EDWE 271050Z 31016G26KT 9999 SCT042 06/M02 Q1018

We and third parties follow your internet behavior on our website with cookies. If you continue, we assume you agree with our cookie policy.